sensor_id;sensor_type;location;lat;lon;timestamp;temperature;humidity
37342;DHT22;58643;49.052;8.518;2022-08-21T00:01:25;15.60;99.90
37342;DHT22;58643;49.052;8.518;2022-08-21T00:03:52;15.50;99.90
37342;DHT22;58643;49.052;8.518;2022-08-21T00:06:18;15.80;99.90
37342;DHT22;58643;49.052;8.518;2022-08-21T00:08:44;16.10;99.90
37342;DHT22;58643;49.052;8.518;2022-08-21T00:11:10;15.50;99.90
37342;DHT22;58643;49.052;8.518;2022-08-21T00:13:36;16.60;99.90
37342;DHT22;58643;49.052;8.518;2022-08-21T00:16:03;15.70;99.90
37342;DHT22;58643;49.052;8.518;2022-08-21T00:18:28;17.00;99.90
37342;DHT22;58643;49.052;8.518;2022-08-21T00:20:54;15.80;99.90
37342;DHT22;58643;49.052;8.518;2022-08-21T00:23:20;15.80;99.90
37342;DHT22;58643;49.052;8.518;2022-08-21T00:25:46;15.50;99.90
37342;DHT22;58643;49.052;8.518;2022-08-21T00:28:13;15.60;99.90
37342;DHT22;58643;49.052;8.518;2022-08-21T00:30:40;15.30;99.90
37342;DHT22;58643;49.052;8.518;2022-08-21T00:33:06;15.50;99.90
37342;DHT22;58643;49.052;8.518;2022-08-21T00:35:35;15.10;99.90
37342;DHT22;58643;49.052;8.518;2022-08-21T00:38:02;15.00;99.90
37342;DHT22;58643;49.052;8.518;2022-08-21T00:40:48;15.10;99.90
37342;DHT22;58643;49.052;8.518;2022-08-21T00:43:16;14.90;99.90
37342;DHT22;58643;49.052;8.518;2022-08-21T00:45:42;16.00;99.90
37342;DHT22;58643;49.052;8.518;2022-08-21T00:48:08;14.90;99.90
37342;DHT22;58643;49.052;8.518;2022-08-21T00:50:38;15.80;99.90
37342;DHT22;58643;49.052;8.518;2022-08-21T00:53:06;15.90;99.90
37342;DHT22;58643;49.052;8.518;2022-08-21T00:55:33;15.50;99.90
37342;DHT22;58643;49.052;8.518;2022-08-21T00:58:00;14.80;99.90
37342;DHT22;58643;49.052;8.518;2022-08-21T01:00:30;14.40;99.90
37342;DHT22;58643;49.052;8.518;2022-08-21T01:02:58;15.90;99.90
37342;DHT22;58643;49.052;8.518;2022-08-21T01:05:24;15.50;99.90
37342;DHT22;58643;49.052;8.518;2022-08-21T01:07:50;14.80;99.90
37342;DHT22;58643;49.052;8.518;2022-08-21T01:10:16;15.40;99.90
37342;DHT22;58643;49.052;8.518;2022-08-21T01:12:42;15.00;99.90
37342;DHT22;58643;49.052;8.518;2022-08-21T01:15:11;15.80;99.90
37342;DHT22;58643;49.052;8.518;2022-08-21T01:17:38;14.70;99.90
37342;DHT22;58643;49.052;8.518;2022-08-21T01:20:07;15.90;99.90
37342;DHT22;58643;49.052;8.518;2022-08-21T01:22:33;14.50;99.90
37342;DHT22;58643;49.052;8.518;2022-08-21T01:24:58;14.80;99.90
37342;DHT22;58643;49.052;8.518;2022-08-21T01:27:24;14.40;99.90
37342;DHT22;58643;49.052;8.518;2022-08-21T01:32:48;14.30;99.90
37342;DHT22;58643;49.052;8.518;2022-08-21T01:35:15;15.30;99.90
37342;DHT22;58643;49.052;8.518;2022-08-21T01:37:42;14.30;99.90
37342;DHT22;58643;49.052;8.518;2022-08-21T01:40:08;15.20;99.90
37342;DHT22;58643;49.052;8.518;2022-08-21T01:42:35;13.80;99.90
37342;DHT22;58643;49.052;8.518;2022-08-21T01:45:01;14.10;99.90
37342;DHT22;58643;49.052;8.518;2022-08-21T01:47:27;14.00;99.90
37342;DHT22;58643;49.052;8.518;2022-08-21T01:49:53;15.10;99.90
37342;DHT22;58643;49.052;8.518;2022-08-21T01:52:18;14.00;99.90
37342;DHT22;58643;49.052;8.518;2022-08-21T01:54:44;14.30;99.90
37342;DHT22;58643;49.052;8.518;2022-08-21T01:57:11;14.10;99.90
37342;DHT22;58643;49.052;8.518;2022-08-21T01:59:37;15.00;99.90
37342;DHT22;58643;49.052;8.518;2022-08-21T02:02:04;15.60;99.90
37342;DHT22;58643;49.052;8.518;2022-08-21T02:04:30;14.20;99.90
37342;DHT22;58643;49.052;8.518;2022-08-21T02:06:57;15.20;99.90
37342;DHT22;58643;49.052;8.518;2022-08-21T02:09:22;13.90;99.90
37342;DHT22;58643;49.052;8.518;2022-08-21T02:11:48;14.00;99.90
37342;DHT22;58643;49.052;8.518;2022-08-21T02:14:15;13.90;99.90
37342;DHT22;58643;49.052;8.518;2022-08-21T02:16:42;14.90;99.90
37342;DHT22;58643;49.052;8.518;2022-08-21T02:19:09;15.00;99.90
37342;DHT22;58643;49.052;8.518;2022-08-21T02:21:35;13.70;99.90
37342;DHT22;58643;49.052;8.518;2022-08-21T02:24:01;13.60;99.90
37342;DHT22;58643;49.052;8.518;2022-08-21T02:26:27;13.50;99.90
37342;DHT22;58643;49.052;8.518;2022-08-21T02:28:53;13.60;99.90
37342;DHT22;58643;49.052;8.518;2022-08-21T02:31:19;13.50;99.90
37342;DHT22;58643;49.052;8.518;2022-08-21T02:33:44;14.90;99.90
37342;DHT22;58643;49.052;8.518;2022-08-21T02:36:11;15.10;99.90
37342;DHT22;58643;49.052;8.518;2022-08-21T02:38:38;13.90;99.90
37342;DHT22;58643;49.052;8.518;2022-08-21T02:41:06;13.70;99.90
37342;DHT22;58643;49.052;8.518;2022-08-21T02:43:33;14.00;99.90
37342;DHT22;58643;49.052;8.518;2022-08-21T02:45:58;14.00;99.90
37342;DHT22;58643;49.052;8.518;2022-08-21T02:48:28;14.10;99.90
37342;DHT22;58643;49.052;8.518;2022-08-21T02:50:55;13.70;99.90
37342;DHT22;58643;49.052;8.518;2022-08-21T02:53:21;13.60;99.90
37342;DHT22;58643;49.052;8.518;2022-08-21T02:55:48;13.70;99.90
37342;DHT22;58643;49.052;8.518;2022-08-21T02:58:17;13.70;99.90
37342;DHT22;58643;49.052;8.518;2022-08-21T03:00:43;13.60;99.90
37342;DHT22;58643;49.052;8.518;2022-08-21T03:03:09;15.00;99.90
37342;DHT22;58643;49.052;8.518;2022-08-21T03:05:36;13.20;99.90
37342;DHT22;58643;49.052;8.518;2022-08-21T03:08:05;14.60;99.90
37342;DHT22;58643;49.052;8.518;2022-08-21T03:10:35;13.30;99.90
37342;DHT22;58643;49.052;8.518;2022-08-21T03:13:00;13.50;99.90
37342;DHT22;58643;49.052;8.518;2022-08-21T03:15:28;13.20;99.90
37342;DHT22;58643;49.052;8.518;2022-08-21T03:17:54;13.30;99.90
37342;DHT22;58643;49.052;8.518;2022-08-21T03:20:22;13.20;99.90
37342;DHT22;58643;49.052;8.518;2022-08-21T03:22:49;13.20;99.90
37342;DHT22;58643;49.052;8.518;2022-08-21T03:25:15;13.00;99.90
37342;DHT22;58643;49.052;8.518;2022-08-21T03:27:41;13.30;99.90
37342;DHT22;58643;49.052;8.518;2022-08-21T03:30:07;13.00;99.90
37342;DHT22;58643;49.052;8.518;2022-08-21T03:32:33;13.00;99.90
37342;DHT22;58643;49.052;8.518;2022-08-21T03:35:00;13.50;99.90
37342;DHT22;58643;49.052;8.518;2022-08-21T03:37:27;14.60;99.90
37342;DHT22;58643;49.052;8.518;2022-08-21T03:39:53;13.90;99.90
37342;DHT22;58643;49.052;8.518;2022-08-21T03:42:18;13.60;99.90
37342;DHT22;58643;49.052;8.518;2022-08-21T03:44:44;13.60;99.90
37342;DHT22;58643;49.052;8.518;2022-08-21T03:47:10;13.20;99.90
37342;DHT22;58643;49.052;8.518;2022-08-21T03:49:35;14.50;99.90
37342;DHT22;58643;49.052;8.518;2022-08-21T03:52:02;14.20;99.90
37342;DHT22;58643;49.052;8.518;2022-08-21T03:54:28;13.30;99.90
37342;DHT22;58643;49.052;8.518;2022-08-21T03:56:53;14.30;99.90
37342;DHT22;58643;49.052;8.518;2022-08-21T03:59:19;13.30;99.90
37342;DHT22;58643;49.052;8.518;2022-08-21T04:01:55;13.30;99.90
37342;DHT22;58643;49.052;8.518;2022-08-21T04:04:21;13.10;99.90
37342;DHT22;58643;49.052;8.518;2022-08-21T04:06:47;13.10;99.90
37342;DHT22;58643;49.052;8.518;2022-08-21T04:09:13;13.00;99.90
37342;DHT22;58643;49.052;8.518;2022-08-21T04:11:39;14.30;99.90
37342;DHT22;58643;49.052;8.518;2022-08-21T04:14:04;13.90;99.90
37342;DHT22;58643;49.052;8.518;2022-08-21T04:16:30;13.80;99.90
37342;DHT22;58643;49.052;8.518;2022-08-21T04:18:56;13.00;99.90
37342;DHT22;58643;49.052;8.518;2022-08-21T04:21:23;12.50;99.90
37342;DHT22;58643;49.052;8.518;2022-08-21T04:23:49;12.90;99.90
37342;DHT22;58643;49.052;8.518;2022-08-21T04:26:15;14.40;99.90
37342;DHT22;58643;49.052;8.518;2022-08-21T04:28:41;12.80;99.90
37342;DHT22;58643;49.052;8.518;2022-08-21T04:31:08;12.70;99.90
37342;DHT22;58643;49.052;8.518;2022-08-21T04:33:34;12.70;99.90
37342;DHT22;58643;49.052;8.518;2022-08-21T04:35:59;13.00;99.90
37342;DHT22;58643;49.052;8.518;2022-08-21T04:38:25;13.00;99.90
37342;DHT22;58643;49.052;8.518;2022-08-21T04:40:51;13.00;99.90
37342;DHT22;58643;49.052;8.518;2022-08-21T04:43:17;13.00;99.90
37342;DHT22;58643;49.052;8.518;2022-08-21T04:45:45;13.00;99.90
37342;DHT22;58643;49.052;8.518;2022-08-21T04:48:14;12.80;99.90
37342;DHT22;58643;49.052;8.518;2022-08-21T04:51:04;14.40;99.90
37342;DHT22;58643;49.052;8.518;2022-08-21T04:53:33;12.90;99.90
37342;DHT22;58643;49.052;8.518;2022-08-21T04:56:04;12.80;99.90
37342;DHT22;58643;49.052;8.518;2022-08-21T04:58:30;12.80;99.90
37342;DHT22;58643;49.052;8.518;2022-08-21T05:01:00;12.70;99.90
37342;DHT22;58643;49.052;8.518;2022-08-21T05:03:27;12.70;99.90
37342;DHT22;58643;49.052;8.518;2022-08-21T05:05:53;14.50;99.90
37342;DHT22;58643;49.052;8.518;2022-08-21T05:08:21;13.80;99.90
37342;DHT22;58643;49.052;8.518;2022-08-21T05:10:49;13.10;99.90
37342;DHT22;58643;49.052;8.518;2022-08-21T05:13:14;14.60;99.90
37342;DHT22;58643;49.052;8.518;2022-08-21T05:15:40;15.10;99.90
37342;DHT22;58643;49.052;8.518;2022-08-21T05:18:07;14.10;99.90
37342;DHT22;58643;49.052;8.518;2022-08-21T05:20:33;14.40;99.90
37342;DHT22;58643;49.052;8.518;2022-08-21T05:23:08;14.20;99.90
37342;DHT22;58643;49.052;8.518;2022-08-21T05:25:34;14.70;99.90
37342;DHT22;58643;49.052;8.518;2022-08-21T05:27:59;13.90;99.90
37342;DHT22;58643;49.052;8.518;2022-08-21T05:30:25;14.10;99.90
37342;DHT22;58643;49.052;8.518;2022-08-21T05:33:00;14.10;99.90
37342;DHT22;58643;49.052;8.518;2022-08-21T05:35:26;14.20;99.90
37342;DHT22;58643;49.052;8.518;2022-08-21T05:37:53;14.50;99.90
37342;DHT22;58643;49.052;8.518;2022-08-21T05:40:18;14.80;99.90
37342;DHT22;58643;49.052;8.518;2022-08-21T05:42:44;14.20;99.90
37342;DHT22;58643;49.052;8.518;2022-08-21T05:45:10;15.00;99.90
37342;DHT22;58643;49.052;8.518;2022-08-21T05:47:36;15.60;99.90
37342;DHT22;58643;49.052;8.518;2022-08-21T05:50:03;14.60;99.90
37342;DHT22;58643;49.052;8.518;2022-08-21T05:52:29;14.60;99.90
37342;DHT22;58643;49.052;8.518;2022-08-21T05:54:54;14.90;99.90
37342;DHT22;58643;49.052;8.518;2022-08-21T05:57:20;14.80;99.90
37342;DHT22;58643;49.052;8.518;2022-08-21T05:59:47;14.80;99.90
37342;DHT22;58643;49.052;8.518;2022-08-21T06:02:12;15.10;99.90
37342;DHT22;58643;49.052;8.518;2022-08-21T06:04:39;16.00;99.90
37342;DHT22;58643;49.052;8.518;2022-08-21T06:07:05;15.60;99.90
37342;DHT22;58643;49.052;8.518;2022-08-21T06:09:30;16.00;99.90
37342;DHT22;58643;49.052;8.518;2022-08-21T06:11:56;16.60;99.90
37342;DHT22;58643;49.052;8.518;2022-08-21T06:14:22;15.80;99.90
37342;DHT22;58643;49.052;8.518;2022-08-21T06:16:47;15.80;99.90
37342;DHT22;58643;49.052;8.518;2022-08-21T06:19:13;16.20;99.90
37342;DHT22;58643;49.052;8.518;2022-08-21T06:21:38;16.30;99.90
37342;DHT22;58643;49.052;8.518;2022-08-21T06:24:05;16.00;99.90
37342;DHT22;58643;49.052;8.518;2022-08-21T06:26:30;16.10;99.90
37342;DHT22;58643;49.052;8.518;2022-08-21T06:28:56;16.30;99.90
37342;DHT22;58643;49.052;8.518;2022-08-21T06:31:24;16.30;99.90
37342;DHT22;58643;49.052;8.518;2022-08-21T06:33:51;17.00;99.90
37342;DHT22;58643;49.052;8.518;2022-08-21T06:36:17;16.90;99.90
37342;DHT22;58643;49.052;8.518;2022-08-21T06:38:43;17.50;99.90
37342;DHT22;58643;49.052;8.518;2022-08-21T06:41:09;17.60;99.90
37342;DHT22;58643;49.052;8.518;2022-08-21T06:43:34;17.10;99.90
37342;DHT22;58643;49.052;8.518;2022-08-21T06:46:00;17.10;99.90
37342;DHT22;58643;49.052;8.518;2022-08-21T06:48:26;17.50;99.90
37342;DHT22;58643;49.052;8.518;2022-08-21T06:50:52;17.50;99.90
37342;DHT22;58643;49.052;8.518;2022-08-21T06:53:20;17.80;99.90
37342;DHT22;58643;49.052;8.518;2022-08-21T06:55:46;17.80;99.90
37342;DHT22;58643;49.052;8.518;2022-08-21T06:58:12;18.80;99.90
37342;DHT22;58643;49.052;8.518;2022-08-21T07:00:40;18.30;99.90
37342;DHT22;58643;49.052;8.518;2022-08-21T07:03:06;18.30;99.90
37342;DHT22;58643;49.052;8.518;2022-08-21T07:05:32;18.80;99.90
37342;DHT22;58643;49.052;8.518;2022-08-21T07:07:57;18.50;99.90
37342;DHT22;58643;49.052;8.518;2022-08-21T07:10:27;19.80;99.90
37342;DHT22;58643;49.052;8.518;2022-08-21T07:12:53;18.70;99.90
37342;DHT22;58643;49.052;8.518;2022-08-21T07:15:20;18.90;99.90
37342;DHT22;58643;49.052;8.518;2022-08-21T07:17:45;19.00;99.90
37342;DHT22;58643;49.052;8.518;2022-08-21T07:20:11;20.40;99.90
37342;DHT22;58643;49.052;8.518;2022-08-21T07:22:37;19.40;99.90
37342;DHT22;58643;49.052;8.518;2022-08-21T07:25:05;19.30;99.90
37342;DHT22;58643;49.052;8.518;2022-08-21T07:27:31;19.40;99.90
37342;DHT22;58643;49.052;8.518;2022-08-21T07:29:58;19.60;99.90
37342;DHT22;58643;49.052;8.518;2022-08-21T07:32:24;20.00;99.90
37342;DHT22;58643;49.052;8.518;2022-08-21T07:34:49;20.10;99.90
37342;DHT22;58643;49.052;8.518;2022-08-21T07:37:15;20.60;99.90
37342;DHT22;58643;49.052;8.518;2022-08-21T07:39:41;20.90;99.90
37342;DHT22;58643;49.052;8.518;2022-08-21T07:42:06;20.20;99.60
37342;DHT22;58643;49.052;8.518;2022-08-21T07:44:32;20.20;99.10
37342;DHT22;58643;49.052;8.518;2022-08-21T07:47:00;20.40;99.10
37342;DHT22;58643;49.052;8.518;2022-08-21T07:49:25;20.60;98.90
37342;DHT22;58643;49.052;8.518;2022-08-21T07:51:51;20.80;97.90
37342;DHT22;58643;49.052;8.518;2022-08-21T07:54:17;20.90;97.50
37342;DHT22;58643;49.052;8.518;2022-08-21T07:56:43;21.20;97.20
37342;DHT22;58643;49.052;8.518;2022-08-21T07:59:08;21.10;96.90
37342;DHT22;58643;49.052;8.518;2022-08-21T08:01:34;21.10;96.40
37342;DHT22;58643;49.052;8.518;2022-08-21T08:03:59;21.20;96.00
37342;DHT22;58643;49.052;8.518;2022-08-21T08:06:25;21.30;96.20
37342;DHT22;58643;49.052;8.518;2022-08-21T08:08:51;21.60;95.90
37342;DHT22;58643;49.052;8.518;2022-08-21T08:11:17;21.60;95.70
37342;DHT22;58643;49.052;8.518;2022-08-21T08:13:46;21.70;95.40
37342;DHT22;58643;49.052;8.518;2022-08-21T08:16:12;21.90;95.20
37342;DHT22;58643;49.052;8.518;2022-08-21T08:18:38;22.10;94.50
37342;DHT22;58643;49.052;8.518;2022-08-21T08:21:04;22.20;94.30
37342;DHT22;58643;49.052;8.518;2022-08-21T08:23:31;22.20;93.40
37342;DHT22;58643;49.052;8.518;2022-08-21T08:25:57;22.20;93.80
37342;DHT22;58643;49.052;8.518;2022-08-21T08:28:23;22.20;93.70
37342;DHT22;58643;49.052;8.518;2022-08-21T08:30:49;22.30;93.40
37342;DHT22;58643;49.052;8.518;2022-08-21T08:33:15;22.50;93.10
37342;DHT22;58643;49.052;8.518;2022-08-21T08:35:45;22.50;93.20
37342;DHT22;58643;49.052;8.518;2022-08-21T08:38:11;22.70;92.10
37342;DHT22;58643;49.052;8.518;2022-08-21T08:43:12;22.90;90.20
37342;DHT22;58643;49.052;8.518;2022-08-21T08:45:40;22.90;91.10
37342;DHT22;58643;49.052;8.518;2022-08-21T08:48:10;23.10;90.90
37342;DHT22;58643;49.052;8.518;2022-08-21T08:50:44;23.20;90.30
37342;DHT22;58643;49.052;8.518;2022-08-21T08:53:16;23.30;88.60
37342;DHT22;58643;49.052;8.518;2022-08-21T08:55:44;23.40;89.40
37342;DHT22;58643;49.052;8.518;2022-08-21T09:00:51;23.80;86.40
37342;DHT22;58643;49.052;8.518;2022-08-21T09:03:17;24.20;84.70
37342;DHT22;58643;49.052;8.518;2022-08-21T09:06:14;24.50;84.50
37342;DHT22;58643;49.052;8.518;2022-08-21T09:08:54;24.10;83.50
37342;DHT22;58643;49.052;8.518;2022-08-21T09:11:57;24.50;83.50
37342;DHT22;58643;49.052;8.518;2022-08-21T09:17:37;24.50;78.30
37342;DHT22;58643;49.052;8.518;2022-08-21T09:26:11;25.00;77.40
37342;DHT22;58643;49.052;8.518;2022-08-21T09:28:37;25.20;77.20
37342;DHT22;58643;49.052;8.518;2022-08-21T09:31:08;25.40;76.00
37342;DHT22;58643;49.052;8.518;2022-08-21T09:33:37;25.50;75.90
37342;DHT22;58643;49.052;8.518;2022-08-21T09:36:03;25.80;75.90
37342;DHT22;58643;49.052;8.518;2022-08-21T09:40:59;26.60;71.80
37342;DHT22;58643;49.052;8.518;2022-08-21T09:43:26;27.70;69.50
37342;DHT22;58643;49.052;8.518;2022-08-21T09:46:08;28.30;66.60
37342;DHT22;58643;49.052;8.518;2022-08-21T09:48:58;29.00;62.30
37342;DHT22;58643;49.052;8.518;2022-08-21T09:51:30;29.50;60.20
37342;DHT22;58643;49.052;8.518;2022-08-21T09:56:37;30.30;55.00
37342;DHT22;58643;49.052;8.518;2022-08-21T09:59:33;29.90;54.50
37342;DHT22;58643;49.052;8.518;2022-08-21T10:02:01;29.70;54.60
37342;DHT22;58643;49.052;8.518;2022-08-21T10:04:34;30.00;55.10
37342;DHT22;58643;49.052;8.518;2022-08-21T10:07:08;30.90;51.80
37342;DHT22;58643;49.052;8.518;2022-08-21T10:09:34;31.10;51.10
37342;DHT22;58643;49.052;8.518;2022-08-21T10:12:16;31.50;51.20
37342;DHT22;58643;49.052;8.518;2022-08-21T10:14:50;31.10;50.90
37342;DHT22;58643;49.052;8.518;2022-08-21T10:20:19;31.60;49.50
37342;DHT22;58643;49.052;8.518;2022-08-21T10:25:33;33.30;48.90
37342;DHT22;58643;49.052;8.518;2022-08-21T10:28:28;33.60;46.10
37342;DHT22;58643;49.052;8.518;2022-08-21T10:31:00;33.70;45.40
37342;DHT22;58643;49.052;8.518;2022-08-21T10:36:26;32.20;46.70
37342;DHT22;58643;49.052;8.518;2022-08-21T10:39:06;32.10;47.50
37342;DHT22;58643;49.052;8.518;2022-08-21T10:44:23;32.10;47.50
37342;DHT22;58643;49.052;8.518;2022-08-21T10:49:48;33.80;44.80
37342;DHT22;58643;49.052;8.518;2022-08-21T10:52:36;33.80;44.50
37342;DHT22;58643;49.052;8.518;2022-08-21T10:55:16;33.30;44.50
37342;DHT22;58643;49.052;8.518;2022-08-21T10:57:58;33.70;46.60
37342;DHT22;58643;49.052;8.518;2022-08-21T11:00:56;34.40;43.00
37342;DHT22;58643;49.052;8.518;2022-08-21T11:03:45;35.40;42.00
37342;DHT22;58643;49.052;8.518;2022-08-21T11:06:23;35.40;41.80
37342;DHT22;58643;49.052;8.518;2022-08-21T11:08:52;35.10;41.70
37342;DHT22;58643;49.052;8.518;2022-08-21T11:11:35;34.80;42.30
37342;DHT22;58643;49.052;8.518;2022-08-21T11:16:49;34.30;42.90
37342;DHT22;58643;49.052;8.518;2022-08-21T11:19:25;34.50;42.90
37342;DHT22;58643;49.052;8.518;2022-08-21T11:21:57;34.20;42.20
37342;DHT22;58643;49.052;8.518;2022-08-21T11:24:29;34.00;43.90
37342;DHT22;58643;49.052;8.518;2022-08-21T11:29:39;33.20;43.90
37342;DHT22;58643;49.052;8.518;2022-08-21T11:46:04;32.70;43.40
37342;DHT22;58643;49.052;8.518;2022-08-21T11:51:23;31.60;45.60
37342;DHT22;58643;49.052;8.518;2022-08-21T11:54:29;31.20;46.30
37342;DHT22;58643;49.052;8.518;2022-08-21T11:57:25;32.10;44.30
37342;DHT22;58643;49.052;8.518;2022-08-21T12:00:05;32.60;43.80
37342;DHT22;58643;49.052;8.518;2022-08-21T12:02:46;32.50;43.60
37342;DHT22;58643;49.052;8.518;2022-08-21T12:05:29;33.10;43.90
37342;DHT22;58643;49.052;8.518;2022-08-21T12:08:10;33.70;42.20
37342;DHT22;58643;49.052;8.518;2022-08-21T12:10:42;33.50;42.30
37342;DHT22;58643;49.052;8.518;2022-08-21T12:13:25;33.40;42.50
37342;DHT22;58643;49.052;8.518;2022-08-21T12:15:51;33.60;42.90
37342;DHT22;58643;49.052;8.518;2022-08-21T12:18:30;33.80;42.10
37342;DHT22;58643;49.052;8.518;2022-08-21T12:21:01;34.00;41.90
37342;DHT22;58643;49.052;8.518;2022-08-21T12:23:48;33.60;43.20
37342;DHT22;58643;49.052;8.518;2022-08-21T12:26:19;33.50;43.50
37342;DHT22;58643;49.052;8.518;2022-08-21T12:28:46;33.80;42.60
37342;DHT22;58643;49.052;8.518;2022-08-21T12:31:25;33.40;43.20
37342;DHT22;58643;49.052;8.518;2022-08-21T12:33:52;33.40;43.50
37342;DHT22;58643;49.052;8.518;2022-08-21T12:36:22;33.40;43.10
37342;DHT22;58643;49.052;8.518;2022-08-21T12:38:58;33.40;42.80
37342;DHT22;58643;49.052;8.518;2022-08-21T12:41:32;32.70;43.30
37342;DHT22;58643;49.052;8.518;2022-08-21T12:44:16;32.40;43.70
37342;DHT22;58643;49.052;8.518;2022-08-21T12:46:48;32.50;42.90
37342;DHT22;58643;49.052;8.518;2022-08-21T12:49:22;32.20;43.90
37342;DHT22;58643;49.052;8.518;2022-08-21T12:52:14;32.20;42.70
37342;DHT22;58643;49.052;8.518;2022-08-21T12:54:43;31.80;43.80
37342;DHT22;58643;49.052;8.518;2022-08-21T12:57:27;31.40;43.40
37342;DHT22;58643;49.052;8.518;2022-08-21T12:59:55;31.60;43.20
37342;DHT22;58643;49.052;8.518;2022-08-21T13:02:24;32.70;44.30
37342;DHT22;58643;49.052;8.518;2022-08-21T13:04:52;32.80;43.10
37342;DHT22;58643;49.052;8.518;2022-08-21T13:10:16;34.00;41.30
37342;DHT22;58643;49.052;8.518;2022-08-21T13:12:43;34.20;40.90
37342;DHT22;58643;49.052;8.518;2022-08-21T13:15:11;34.20;41.30
37342;DHT22;58643;49.052;8.518;2022-08-21T13:17:44;34.80;40.90
37342;DHT22;58643;49.052;8.518;2022-08-21T13:20:22;35.20;39.80
37342;DHT22;58643;49.052;8.518;2022-08-21T13:22:49;35.10;39.80
37342;DHT22;58643;49.052;8.518;2022-08-21T13:25:17;35.40;39.70
37342;DHT22;58643;49.052;8.518;2022-08-21T13:27:45;35.80;39.00
37342;DHT22;58643;49.052;8.518;2022-08-21T13:30:22;38.30;39.50
37342;DHT22;58643;49.052;8.518;2022-08-21T13:32:50;37.30;37.00
37342;DHT22;58643;49.052;8.518;2022-08-21T13:35:20;37.40;36.70
37342;DHT22;58643;49.052;8.518;2022-08-21T13:37:48;37.00;36.20
37342;DHT22;58643;49.052;8.518;2022-08-21T13:40:20;37.30;36.90
37342;DHT22;58643;49.052;8.518;2022-08-21T13:42:47;38.30;35.50
37342;DHT22;58643;49.052;8.518;2022-08-21T13:45:32;38.40;35.70
37342;DHT22;58643;49.052;8.518;2022-08-21T13:48:00;37.60;36.60
37342;DHT22;58643;49.052;8.518;2022-08-21T13:50:26;37.40;36.40
37342;DHT22;58643;49.052;8.518;2022-08-21T13:52:59;37.00;36.60
37342;DHT22;58643;49.052;8.518;2022-08-21T13:55:38;36.70;38.40
37342;DHT22;58643;49.052;8.518;2022-08-21T13:58:04;37.80;36.10
37342;DHT22;58643;49.052;8.518;2022-08-21T14:00:33;39.10;35.60
37342;DHT22;58643;49.052;8.518;2022-08-21T14:03:11;39.50;35.10
37342;DHT22;58643;49.052;8.518;2022-08-21T14:05:45;39.50;34.50
37342;DHT22;58643;49.052;8.518;2022-08-21T14:08:21;40.20;33.70
37342;DHT22;58643;49.052;8.518;2022-08-21T14:10:50;40.20;33.70
37342;DHT22;58643;49.052;8.518;2022-08-21T14:13:34;39.40;33.10
37342;DHT22;58643;49.052;8.518;2022-08-21T14:16:03;39.30;33.50
37342;DHT22;58643;49.052;8.518;2022-08-21T14:18:47;38.90;34.00
37342;DHT22;58643;49.052;8.518;2022-08-21T14:21:13;39.30;34.10
37342;DHT22;58643;49.052;8.518;2022-08-21T14:23:39;39.30;33.80
37342;DHT22;58643;49.052;8.518;2022-08-21T14:26:06;39.60;33.70
37342;DHT22;58643;49.052;8.518;2022-08-21T14:28:40;40.60;32.90
37342;DHT22;58643;49.052;8.518;2022-08-21T14:31:20;41.10;32.80
37342;DHT22;58643;49.052;8.518;2022-08-21T14:33:46;41.60;32.20
37342;DHT22;58643;49.052;8.518;2022-08-21T14:36:12;42.10;31.90
37342;DHT22;58643;49.052;8.518;2022-08-21T14:38:39;42.40;31.80
37342;DHT22;58643;49.052;8.518;2022-08-21T14:41:17;41.10;32.40
37342;DHT22;58643;49.052;8.518;2022-08-21T14:43:44;41.30;32.40
37342;DHT22;58643;49.052;8.518;2022-08-21T14:46:10;40.60;32.40
37342;DHT22;58643;49.052;8.518;2022-08-21T14:48:36;39.90;33.00
37342;DHT22;58643;49.052;8.518;2022-08-21T14:51:01;40.00;33.00
37342;DHT22;58643;49.052;8.518;2022-08-21T14:53:27;41.10;32.60
37342;DHT22;58643;49.052;8.518;2022-08-21T14:55:53;41.80;31.70
37342;DHT22;58643;49.052;8.518;2022-08-21T14:58:33;41.10;32.10
37342;DHT22;58643;49.052;8.518;2022-08-21T15:01:00;40.70;32.10
37342;DHT22;58643;49.052;8.518;2022-08-21T15:03:29;40.20;32.40
37342;DHT22;58643;49.052;8.518;2022-08-21T15:05:55;39.30;32.60
37342;DHT22;58643;49.052;8.518;2022-08-21T15:08:21;39.30;32.90
37342;DHT22;58643;49.052;8.518;2022-08-21T15:10:47;38.20;33.90
37342;DHT22;58643;49.052;8.518;2022-08-21T15:13:12;37.50;34.40
37342;DHT22;58643;49.052;8.518;2022-08-21T15:15:42;37.70;33.80
37342;DHT22;58643;49.052;8.518;2022-08-21T15:18:09;38.30;33.30
37342;DHT22;58643;49.052;8.518;2022-08-21T15:20:36;39.80;33.10
37342;DHT22;58643;49.052;8.518;2022-08-21T15:23:03;41.10;32.20
37342;DHT22;58643;49.052;8.518;2022-08-21T15:25:29;41.80;31.30
37342;DHT22;58643;49.052;8.518;2022-08-21T15:27:55;42.30;30.90
37342;DHT22;58643;49.052;8.518;2022-08-21T15:30:22;42.10;30.60
37342;DHT22;58643;49.052;8.518;2022-08-21T15:32:47;41.50;31.10
37342;DHT22;58643;49.052;8.518;2022-08-21T15:35:13;41.30;31.20
37342;DHT22;58643;49.052;8.518;2022-08-21T15:37:39;41.20;31.90
37342;DHT22;58643;49.052;8.518;2022-08-21T15:40:05;41.50;31.30
37342;DHT22;58643;49.052;8.518;2022-08-21T15:42:32;41.00;31.40
37342;DHT22;58643;49.052;8.518;2022-08-21T15:44:58;40.00;32.10
37342;DHT22;58643;49.052;8.518;2022-08-21T15:47:35;40.70;31.80
37342;DHT22;58643;49.052;8.518;2022-08-21T15:50:02;41.20;31.00
37342;DHT22;58643;49.052;8.518;2022-08-21T15:52:28;41.30;31.70
37342;DHT22;58643;49.052;8.518;2022-08-21T15:54:54;41.60;30.80
37342;DHT22;58643;49.052;8.518;2022-08-21T15:57:22;41.70;30.90
37342;DHT22;58643;49.052;8.518;2022-08-21T15:59:53;42.00;30.70
37342;DHT22;58643;49.052;8.518;2022-08-21T16:02:24;42.00;30.50
37342;DHT22;58643;49.052;8.518;2022-08-21T16:04:50;42.50;30.20
37342;DHT22;58643;49.052;8.518;2022-08-21T16:07:16;43.10;30.10
37342;DHT22;58643;49.052;8.518;2022-08-21T16:09:45;43.40;29.90
37342;DHT22;58643;49.052;8.518;2022-08-21T16:12:21;42.80;30.50
37342;DHT22;58643;49.052;8.518;2022-08-21T16:14:48;42.90;30.00
37342;DHT22;58643;49.052;8.518;2022-08-21T16:17:15;43.00;30.00
37342;DHT22;58643;49.052;8.518;2022-08-21T16:19:41;42.60;29.90
37342;DHT22;58643;49.052;8.518;2022-08-21T16:22:07;42.50;30.30
37342;DHT22;58643;49.052;8.518;2022-08-21T16:24:33;42.40;30.00
37342;DHT22;58643;49.052;8.518;2022-08-21T16:26:59;41.80;30.30
37342;DHT22;58643;49.052;8.518;2022-08-21T16:29:29;41.00;30.60
37342;DHT22;58643;49.052;8.518;2022-08-21T16:31:57;41.00;31.20
37342;DHT22;58643;49.052;8.518;2022-08-21T16:34:23;41.00;31.70
37342;DHT22;58643;49.052;8.518;2022-08-21T16:36:49;41.70;30.80
37342;DHT22;58643;49.052;8.518;2022-08-21T16:39:14;42.40;30.00
37342;DHT22;58643;49.052;8.518;2022-08-21T16:41:40;42.20;30.10
37342;DHT22;58643;49.052;8.518;2022-08-21T16:44:06;42.00;30.70